createdAt,value
2023-02-23T00:00:45.905Z,10.91
2023-02-23T00:01:45.894Z,10.94
2023-02-23T00:02:45.982Z,10.86
2023-02-23T00:03:45.846Z,10.91
2023-02-23T00:04:45.836Z,11.01
2023-02-23T00:05:45.859Z,11.03
2023-02-23T00:06:45.873Z,11.11
2023-02-23T00:07:45.813Z,11.13
2023-02-23T00:08:45.831Z,11.07
2023-02-23T00:09:45.779Z,11.09
2023-02-23T00:10:45.759Z,11.14
2023-02-23T00:11:45.773Z,11.20
2023-02-23T00:12:45.761Z,11.21
2023-02-23T00:13:45.761Z,11.21
2023-02-23T00:14:45.719Z,11.13
2023-02-23T00:15:45.717Z,11.17
2023-02-23T00:16:45.757Z,11.24
2023-02-23T00:17:45.694Z,11.28
2023-02-23T00:18:45.720Z,11.25
2023-02-23T00:19:45.705Z,11.16
2023-02-23T00:20:45.674Z,11.11
2023-02-23T00:21:45.639Z,10.99
2023-02-23T00:22:45.644Z,10.96
2023-02-23T00:23:45.624Z,11.13
2023-02-23T00:24:45.616Z,11.25
2023-02-23T00:25:45.657Z,11.25
2023-02-23T00:26:45.571Z,11.27
2023-02-23T00:27:45.565Z,11.25
2023-02-23T00:28:45.571Z,11.16
2023-02-23T00:29:45.543Z,11.09
2023-02-23T00:30:45.547Z,11.10
2023-02-23T00:31:45.722Z,11.14
2023-02-23T00:32:45.555Z,11.21
2023-02-23T00:33:45.515Z,11.24
2023-02-23T00:34:45.499Z,11.20
2023-02-23T00:35:45.503Z,11.09
2023-02-23T00:36:45.509Z,11.03
2023-02-23T00:37:45.490Z,10.94
2023-02-23T00:38:45.456Z,10.96
2023-02-23T00:39:45.432Z,11.16
2023-02-23T00:40:45.420Z,11.20
2023-02-23T00:41:45.437Z,11.27
2023-02-23T00:42:45.435Z,11.25
2023-02-23T00:43:45.434Z,11.25
2023-02-23T00:44:45.392Z,11.34
2023-02-23T00:45:45.381Z,11.32
2023-02-23T00:46:45.411Z,11.21
2023-02-23T00:47:45.347Z,11.25
2023-02-23T00:48:45.333Z,11.11
2023-02-23T00:49:45.348Z,11.10
2023-02-23T00:50:45.321Z,11.20
2023-02-23T00:51:45.291Z,11.03
2023-02-23T00:52:45.294Z,10.94
2023-02-23T00:53:45.304Z,11.07
2023-02-23T00:54:45.304Z,11.19
2023-02-23T00:55:45.248Z,11.01
2023-02-23T00:56:45.359Z,11.02
2023-02-23T00:57:45.259Z,11.06
2023-02-23T00:58:45.241Z,11.13
2023-02-23T00:59:45.223Z,11.16
2023-02-23T01:00:45.216Z,11.31
2023-02-23T01:01:45.249Z,11.39
2023-02-23T01:02:45.196Z,11.43
2023-02-23T01:03:45.166Z,11.46
2023-02-23T01:04:45.183Z,11.38
2023-02-23T01:05:45.164Z,11.21
2023-02-23T01:06:45.126Z,11.29
2023-02-23T01:07:45.114Z,11.41
2023-02-23T01:08:45.121Z,11.38
2023-02-23T01:09:45.101Z,11.31
2023-02-23T01:10:45.069Z,11.32
2023-02-23T01:11:45.100Z,11.32
2023-02-23T01:12:45.054Z,11.29
2023-02-23T01:13:45.038Z,11.27
2023-02-23T01:14:45.031Z,11.24
2023-02-23T01:15:45.057Z,11.10
2023-02-23T01:16:45.031Z,11.13
2023-02-23T01:17:45.028Z,11.02
2023-02-23T01:18:45.030Z,11.17
2023-02-23T01:19:44.982Z,11.14
2023-02-23T01:20:44.960Z,11.20
2023-02-23T01:21:44.971Z,11.16
2023-02-23T01:22:44.939Z,10.99
2023-02-23T01:23:44.949Z,11.13
2023-02-23T01:24:44.914Z,11.09
2023-02-23T01:25:44.915Z,11.13
2023-02-23T01:26:44.902Z,11.29
2023-02-23T01:27:44.878Z,11.34
2023-02-23T01:28:44.900Z,11.36
2023-02-23T01:29:44.926Z,11.32
2023-02-23T01:30:44.910Z,11.25
2023-02-23T01:31:45.022Z,10.96
2023-02-23T01:32:44.824Z,10.94
2023-02-23T01:33:44.835Z,11.02
2023-02-23T01:34:44.829Z,11.07
2023-02-23T01:35:44.793Z,11.09
2023-02-23T01:36:44.807Z,11.09
2023-02-23T01:37:44.770Z,11.11
2023-02-23T01:38:44.762Z,11.13
2023-02-23T01:39:44.740Z,11.21
2023-02-23T01:40:44.789Z,11.29
2023-02-23T01:41:44.720Z,11.36
2023-02-23T01:42:44.741Z,11.41
2023-02-23T01:43:44.703Z,11.46
2023-02-23T01:44:44.682Z,11.41
2023-02-23T01:45:44.671Z,11.39
2023-02-23T01:46:44.703Z,11.29
2023-02-23T01:47:44.663Z,11.31
2023-02-23T01:48:44.685Z,11.28
2023-02-23T01:49:44.633Z,11.25
2023-02-23T01:50:44.636Z,11.35
2023-02-23T01:51:44.723Z,11.34
2023-02-23T01:52:44.636Z,11.47
2023-02-23T01:53:44.594Z,11.53
2023-02-23T01:54:44.655Z,11.59
2023-02-23T01:55:44.570Z,11.64
2023-02-23T01:56:44.557Z,11.62
2023-02-23T01:57:44.572Z,11.52
2023-02-23T01:58:44.583Z,11.50
2023-02-23T01:59:44.503Z,11.59
2023-02-23T02:00:47.225Z,11.59
2023-02-23T02:01:44.575Z,11.59
2023-02-23T02:02:44.486Z,11.67
2023-02-23T02:03:44.508Z,11.64
2023-02-23T02:04:44.676Z,11.67
2023-02-23T02:05:44.435Z,11.65
2023-02-23T02:06:44.446Z,11.54
2023-02-23T02:07:44.421Z,11.47
2023-02-23T02:08:44.406Z,11.53
2023-02-23T02:09:44.538Z,11.56
2023-02-23T02:10:44.396Z,11.64
2023-02-23T02:11:44.383Z,11.72
2023-02-23T02:12:44.374Z,11.68
2023-02-23T02:13:44.385Z,11.61
2023-02-23T02:14:44.361Z,11.53
2023-02-23T02:15:44.386Z,11.47
2023-02-23T02:16:44.306Z,11.54
2023-02-23T02:17:44.305Z,11.62
2023-02-23T02:18:44.302Z,11.67
2023-02-23T02:19:44.380Z,11.65
2023-02-23T02:20:44.268Z,11.52
2023-02-23T02:21:44.309Z,11.32
2023-02-23T02:22:44.250Z,11.21
2023-02-23T02:23:44.251Z,11.34
2023-02-23T02:24:44.243Z,11.31
2023-02-23T02:25:44.207Z,11.21
2023-02-23T02:26:44.399Z,11.21
2023-02-23T02:27:44.213Z,11.16
2023-02-23T02:28:44.178Z,11.11
2023-02-23T02:29:44.163Z,11.03
2023-02-23T02:30:44.222Z,10.92
2023-02-23T02:31:44.274Z,10.89
2023-02-23T02:32:44.168Z,10.86
2023-02-23T02:33:44.210Z,11.01
2023-02-23T02:34:44.108Z,11.19
2023-02-23T02:35:44.091Z,11.20
2023-02-23T02:36:44.129Z,11.13
2023-02-23T02:37:44.071Z,11.11
2023-02-23T02:38:44.112Z,11.10
2023-02-23T02:39:44.080Z,11.25
2023-02-23T02:40:44.105Z,11.39
2023-02-23T02:41:44.022Z,11.35
2023-02-23T02:42:44.029Z,11.21
2023-02-23T02:43:44.112Z,11.35
2023-02-23T02:44:43.996Z,11.50
2023-02-23T02:45:43.971Z,11.54
2023-02-23T02:46:43.973Z,11.41
2023-02-23T02:47:43.954Z,11.28
2023-02-23T02:48:43.955Z,11.10
2023-02-23T02:49:43.972Z,11.10
2023-02-23T02:50:43.947Z,11.14
2023-02-23T02:51:43.944Z,11.07
2023-02-23T02:52:43.906Z,11.01
2023-02-23T02:53:43.904Z,10.95
2023-02-23T02:54:43.905Z,10.96
2023-02-23T02:55:43.974Z,11.10
2023-02-23T02:56:43.894Z,11.13
2023-02-23T02:57:43.851Z,11.13
2023-02-23T02:58:43.850Z,11.02
2023-02-23T02:59:43.911Z,11.07
2023-02-23T03:00:43.820Z,11.09
2023-02-23T03:01:43.871Z,11.10
2023-02-23T03:02:43.818Z,11.21
2023-02-23T03:03:43.812Z,11.29
2023-02-23T03:04:43.787Z,11.32
2023-02-23T03:05:43.850Z,11.39
2023-02-23T03:06:43.822Z,11.44
2023-02-23T03:07:43.738Z,11.43
2023-02-23T03:08:43.732Z,11.36
2023-02-23T03:09:43.780Z,11.36
2023-02-23T03:10:43.709Z,11.32
2023-02-23T03:11:43.700Z,11.32
2023-02-23T03:12:43.766Z,11.28
2023-02-23T03:13:43.670Z,11.34
2023-02-23T03:14:43.668Z,11.43
2023-02-23T03:15:43.753Z,11.39
2023-02-23T03:16:43.636Z,11.38
2023-02-23T03:17:43.631Z,11.36
2023-02-23T03:18:43.676Z,11.39
2023-02-23T03:19:43.612Z,11.38
2023-02-23T03:20:43.581Z,11.43
2023-02-23T03:21:43.598Z,11.43
2023-02-23T03:22:43.573Z,11.35
2023-02-23T03:23:43.563Z,11.14
2023-02-23T03:24:43.566Z,11.17
2023-02-23T03:25:43.545Z,11.13
2023-02-23T03:26:43.513Z,11.11
2023-02-23T03:27:43.536Z,11.19
2023-02-23T03:28:43.500Z,11.31
2023-02-23T03:29:43.586Z,11.31
2023-02-23T03:30:43.490Z,11.35
2023-02-23T03:31:43.536Z,11.35
2023-02-23T03:32:43.443Z,11.24
2023-02-23T03:33:43.446Z,11.20
2023-02-23T03:34:43.457Z,11.28
2023-02-23T03:35:43.450Z,11.35
2023-02-23T03:36:43.412Z,11.27
2023-02-23T03:37:43.468Z,11.06
2023-02-23T03:38:43.420Z,11.03
2023-02-23T03:39:43.379Z,11.09
2023-02-23T03:40:43.384Z,10.99
2023-02-23T03:41:43.704Z,11.02
2023-02-23T03:42:43.471Z,11.11
2023-02-23T03:43:43.337Z,11.16
2023-02-23T03:44:43.320Z,11.11
2023-02-23T03:45:43.449Z,11.03
2023-02-23T03:46:43.336Z,11.11
2023-02-23T03:47:43.286Z,11.19
2023-02-23T03:48:43.269Z,11.28
2023-02-23T03:49:43.277Z,11.34
2023-02-23T03:50:43.244Z,11.38
2023-02-23T03:51:44.137Z,11.39
2023-02-23T03:52:43.244Z,11.44
2023-02-23T03:53:43.217Z,11.38
2023-02-23T03:54:43.230Z,11.24
2023-02-23T03:55:43.196Z,11.16
2023-02-23T03:56:43.175Z,11.11
2023-02-23T03:57:43.258Z,11.17
2023-02-23T03:58:43.155Z,11.25
2023-02-23T03:59:43.144Z,11.25
2023-02-23T04:00:43.133Z,11.17
2023-02-23T04:01:43.163Z,11.28
2023-02-23T04:02:43.128Z,11.29
2023-02-23T04:03:43.144Z,11.09
2023-02-23T04:04:43.136Z,10.91
2023-02-23T04:05:43.066Z,10.86
2023-02-23T04:06:43.066Z,10.95
2023-02-23T04:07:43.064Z,11.11
2023-02-23T04:08:43.046Z,11.21
2023-02-23T04:09:43.062Z,11.29
2023-02-23T04:10:43.029Z,11.35
2023-02-23T04:11:43.027Z,11.34
2023-02-23T04:12:42.995Z,11.32
2023-02-23T04:13:42.976Z,11.36
2023-02-23T04:14:43.069Z,11.32
2023-02-23T04:15:42.959Z,11.31
2023-02-23T04:16:43.207Z,11.35
2023-02-23T04:17:42.934Z,11.35
2023-02-23T04:18:42.954Z,11.35
2023-02-23T04:19:42.916Z,11.31
2023-02-23T04:20:42.973Z,11.28
2023-02-23T04:21:42.908Z,11.29
2023-02-23T04:22:42.897Z,11.32
2023-02-23T04:23:42.856Z,11.34
2023-02-23T04:24:42.889Z,11.36
2023-02-23T04:25:42.852Z,11.32
2023-02-23T04:26:42.858Z,11.31
2023-02-23T04:27:42.871Z,11.29
2023-02-23T04:28:42.815Z,11.28
2023-02-23T04:29:42.828Z,11.25
2023-02-23T04:30:42.823Z,11.27
2023-02-23T04:31:42.852Z,11.24
2023-02-23T04:32:42.836Z,11.27
2023-02-23T04:33:42.757Z,11.31
2023-02-23T04:34:42.788Z,11.32
2023-02-23T04:35:42.743Z,11.32
2023-02-23T04:36:42.735Z,11.28
2023-02-23T04:37:42.754Z,11.27
2023-02-23T04:38:42.856Z,11.27
2023-02-23T04:39:42.727Z,11.31
2023-02-23T04:40:42.687Z,11.27
2023-02-23T04:41:42.672Z,11.21
2023-02-23T04:42:42.719Z,11.24
2023-02-23T04:43:42.673Z,11.28
2023-02-23T04:44:42.722Z,11.31
2023-02-23T04:45:42.726Z,11.35
2023-02-23T04:46:42.692Z,11.38
2023-02-23T04:47:42.645Z,11.41
2023-02-23T04:48:42.664Z,11.36
2023-02-23T04:49:42.619Z,11.35
2023-02-23T04:50:42.613Z,11.35
2023-02-23T04:51:42.557Z,11.35
2023-02-23T04:52:42.538Z,11.35
2023-02-23T04:53:42.533Z,11.32
2023-02-23T04:54:42.524Z,11.32
2023-02-23T04:55:42.524Z,11.31
2023-02-23T04:56:42.533Z,11.39
2023-02-23T04:57:42.515Z,11.44
2023-02-23T04:58:42.471Z,11.49
2023-02-23T04:59:42.468Z,11.50
2023-02-23T05:00:42.452Z,11.53
2023-02-23T05:01:42.520Z,11.49
2023-02-23T05:02:42.449Z,11.52
2023-02-23T05:03:42.445Z,11.50
2023-02-23T05:04:42.462Z,11.50
2023-02-23T05:05:42.412Z,11.54
2023-02-23T05:06:42.380Z,11.57
2023-02-23T05:07:42.422Z,11.61
2023-02-23T05:08:42.366Z,11.57
2023-02-23T05:09:42.352Z,11.61
2023-02-23T05:10:42.339Z,11.65
2023-02-23T05:11:42.414Z,11.67
2023-02-23T05:12:42.319Z,11.65
2023-02-23T05:13:42.344Z,11.59
2023-02-23T05:14:42.324Z,11.56
2023-02-23T05:15:42.333Z,11.59
2023-02-23T05:16:42.285Z,11.61
2023-02-23T05:17:42.287Z,11.65
2023-02-23T05:18:42.257Z,11.65
2023-02-23T05:19:42.272Z,11.59
2023-02-23T05:20:42.319Z,11.62
2023-02-23T05:21:42.219Z,11.68
2023-02-23T05:22:42.191Z,11.70
2023-02-23T05:23:42.182Z,11.71
2023-02-23T05:24:42.201Z,11.74
2023-02-23T05:25:42.159Z,11.70
2023-02-23T05:26:42.151Z,11.65
2023-02-23T05:27:42.155Z,11.67
2023-02-23T05:28:42.161Z,11.62
2023-02-23T05:29:42.118Z,11.68
2023-02-23T05:30:42.228Z,11.68
2023-02-23T05:31:42.206Z,11.64
2023-02-23T05:32:42.101Z,11.59
2023-02-23T05:33:42.066Z,11.53
2023-02-23T05:34:42.188Z,11.59
2023-02-23T05:35:42.111Z,11.65
2023-02-23T05:36:42.040Z,11.64
2023-02-23T05:37:42.016Z,11.65
2023-02-23T05:38:42.010Z,11.57
2023-02-23T05:39:42.100Z,11.53
2023-02-23T05:40:41.990Z,11.61
2023-02-23T05:41:42.016Z,11.64
2023-02-23T05:42:41.978Z,11.52
2023-02-23T05:43:41.983Z,11.36
2023-02-23T05:44:41.948Z,11.38
2023-02-23T05:45:41.961Z,11.47
2023-02-23T05:46:41.924Z,11.53
2023-02-23T05:47:41.931Z,11.47
2023-02-23T05:48:41.903Z,11.49
2023-02-23T05:49:41.877Z,11.57
2023-02-23T05:50:41.869Z,11.65
2023-02-23T05:51:41.869Z,11.59
2023-02-23T05:52:41.864Z,11.59
2023-02-23T05:53:41.855Z,11.67
2023-02-23T05:54:41.820Z,11.70
2023-02-23T05:55:41.835Z,11.72
2023-02-23T05:56:41.802Z,11.72
2023-02-23T05:57:41.806Z,11.72
2023-02-23T05:58:41.820Z,11.74
2023-02-23T05:59:41.791Z,11.77
2023-02-23T06:00:41.756Z,11.75
2023-02-23T06:01:41.757Z,11.80
2023-02-23T06:02:41.835Z,11.77
2023-02-23T06:03:41.802Z,11.82
2023-02-23T06:04:41.755Z,11.72
2023-02-23T06:05:41.704Z,11.74
2023-02-23T06:06:41.696Z,11.77
2023-02-23T06:07:41.696Z,11.72
2023-02-23T06:08:41.795Z,11.74
2023-02-23T06:09:44.298Z,11.72
2023-02-23T06:10:41.693Z,11.72
2023-02-23T06:11:41.637Z,11.80
2023-02-23T06:12:41.630Z,11.80
2023-02-23T06:13:41.606Z,11.75
2023-02-23T06:14:41.615Z,11.74
2023-02-23T06:15:41.657Z,11.74
2023-02-23T06:16:41.641Z,11.78
2023-02-23T06:17:41.568Z,11.78
2023-02-23T06:18:41.550Z,11.80
2023-02-23T06:19:41.571Z,11.82
2023-02-23T06:20:41.530Z,11.82
2023-02-23T06:21:41.544Z,11.78
2023-02-23T06:22:41.507Z,11.78
2023-02-23T06:23:41.494Z,11.85
2023-02-23T06:24:41.488Z,11.86
2023-02-23T06:25:41.485Z,11.83
2023-02-23T06:26:44.104Z,11.83
2023-02-23T06:27:41.479Z,11.74
2023-02-23T06:28:41.495Z,11.74
2023-02-23T06:29:41.442Z,11.59
2023-02-23T06:30:41.462Z,11.50
2023-02-23T06:31:41.519Z,11.52
2023-02-23T06:32:41.403Z,11.39
2023-02-23T06:33:41.398Z,11.38
2023-02-23T06:34:41.368Z,11.50
2023-02-23T06:35:41.358Z,11.62
2023-02-23T06:36:41.368Z,11.71
2023-02-23T06:37:41.344Z,11.82
2023-02-23T06:38:41.361Z,11.83
2023-02-23T06:39:41.336Z,11.90
2023-02-23T06:40:41.324Z,11.94
2023-02-23T06:41:41.296Z,11.97
2023-02-23T06:42:41.310Z,11.85
2023-02-23T06:43:41.280Z,11.68
2023-02-23T06:44:41.332Z,11.67
2023-02-23T06:45:41.260Z,11.68
2023-02-23T06:46:41.305Z,11.74
2023-02-23T06:47:41.228Z,11.74
2023-02-23T06:48:41.223Z,11.77
2023-02-23T06:49:41.210Z,11.82
2023-02-23T06:50:41.403Z,11.87
2023-02-23T06:51:41.188Z,11.93
2023-02-23T06:52:41.166Z,11.94
2023-02-23T06:53:41.189Z,11.87
2023-02-23T06:54:41.132Z,11.82
2023-02-23T06:55:41.133Z,11.74
2023-02-23T06:56:41.153Z,11.72
2023-02-23T06:57:41.103Z,11.80
2023-02-23T06:58:41.102Z,11.87
2023-02-23T06:59:41.091Z,11.97
2023-02-23T07:00:41.083Z,12.04
2023-02-23T07:01:41.122Z,12.09
2023-02-23T07:02:41.091Z,12.09
2023-02-23T07:03:41.083Z,12.08
2023-02-23T07:04:41.032Z,11.97
2023-02-23T07:05:41.033Z,11.96
2023-02-23T07:06:41.018Z,11.97
2023-02-23T07:07:40.988Z,11.89
2023-02-23T07:08:41.013Z,11.90
2023-02-23T07:09:41.000Z,11.96
2023-02-23T07:10:40.951Z,12.08
2023-02-23T07:11:40.951Z,12.12
2023-02-23T07:12:40.969Z,12.13
2023-02-23T07:13:40.940Z,12.05
2023-02-23T07:14:40.954Z,12.01
2023-02-23T07:15:40.891Z,11.99
2023-02-23T07:16:40.915Z,12.04
2023-02-23T07:17:40.890Z,12.08
2023-02-23T07:18:40.872Z,12.12
2023-02-23T07:19:40.857Z,12.15
2023-02-23T07:20:40.884Z,12.11
2023-02-23T07:21:40.830Z,12.05
2023-02-23T07:22:40.811Z,12.08
2023-02-23T07:23:40.829Z,12.11
2023-02-23T07:24:40.786Z,12.13
2023-02-23T07:25:40.780Z,12.13
2023-02-23T07:26:40.796Z,12.09
2023-02-23T07:27:40.750Z,12.08
2023-02-23T07:28:40.776Z,12.09
2023-02-23T07:29:40.751Z,12.09
2023-02-23T07:30:40.749Z,12.11
2023-02-23T07:31:40.816Z,12.26
2023-02-23T07:32:40.798Z,12.37
2023-02-23T07:33:40.701Z,12.38
2023-02-23T07:34:40.682Z,12.29
2023-02-23T07:35:40.661Z,12.26
2023-02-23T07:36:40.644Z,12.23
2023-02-23T07:37:40.713Z,12.24
2023-02-23T07:38:40.674Z,12.29
2023-02-23T07:39:40.637Z,12.30
2023-02-23T07:40:40.608Z,12.23
2023-02-23T07:41:40.635Z,12.11
2023-02-23T07:42:40.589Z,12.12
2023-02-23T07:43:40.568Z,12.08
2023-02-23T07:44:40.591Z,12.06
2023-02-23T07:45:40.558Z,11.96
2023-02-23T07:46:40.539Z,11.86
2023-02-23T07:47:40.521Z,11.85
2023-02-23T07:48:40.513Z,11.82
2023-02-23T07:49:40.509Z,11.96
2023-02-23T07:50:40.529Z,12.16
2023-02-23T07:51:40.568Z,12.24
2023-02-23T07:52:40.467Z,12.21
2023-02-23T07:53:40.454Z,12.15
2023-02-23T07:54:40.502Z,12.29
2023-02-23T07:55:40.441Z,12.34
2023-02-23T07:56:40.462Z,12.34
2023-02-23T07:57:40.436Z,12.41
2023-02-23T07:58:40.394Z,12.42
2023-02-23T07:59:40.400Z,12.30
2023-02-23T08:00:40.382Z,12.34
2023-02-23T08:01:40.373Z,12.41
2023-02-23T08:02:40.376Z,12.42
2023-02-23T08:03:40.344Z,12.24
2023-02-23T08:04:40.340Z,12.23
2023-02-23T08:05:40.317Z,12.39
2023-02-23T08:06:40.338Z,12.51
2023-02-23T08:07:40.344Z,12.48
2023-02-23T08:08:40.326Z,12.34
2023-02-23T08:09:40.304Z,12.21
2023-02-23T08:10:40.278Z,12.16
2023-02-23T08:11:40.318Z,12.13
2023-02-23T08:12:40.321Z,12.26
2023-02-23T08:13:40.346Z,12.12
2023-02-23T08:14:40.254Z,12.12
2023-02-23T08:15:40.211Z,12.19
2023-02-23T08:16:40.250Z,12.16
2023-02-23T08:17:40.185Z,11.97
2023-02-23T08:18:40.260Z,11.80
2023-02-23T08:19:40.342Z,11.71
2023-02-23T08:20:40.166Z,11.77
2023-02-23T08:21:40.129Z,11.82
2023-02-23T08:22:49.213Z,11.93
2023-02-23T08:23:41.110Z,12.13
2023-02-23T08:24:40.100Z,12.26
2023-02-23T08:25:40.114Z,12.51
2023-02-23T08:26:40.162Z,12.67
2023-02-23T08:27:40.068Z,12.78
2023-02-23T08:28:40.047Z,12.81
2023-02-23T08:29:40.060Z,12.87
2023-02-23T08:30:40.123Z,12.99
2023-02-23T08:31:40.159Z,13.04
2023-02-23T08:32:40.123Z,13.06
2023-02-23T08:33:39.999Z,13.11
2023-02-23T08:34:40.071Z,13.14
2023-02-23T08:35:39.969Z,13.06
2023-02-23T08:36:39.966Z,13.04
2023-02-23T08:37:39.949Z,13.06
2023-02-23T08:38:39.956Z,13.11
2023-02-23T08:39:40.324Z,13.03
2023-02-23T08:40:39.925Z,12.84
2023-02-23T08:41:39.901Z,12.69
2023-02-23T08:42:39.888Z,12.87
2023-02-23T08:43:39.872Z,13.04
2023-02-23T08:44:39.926Z,13.07
2023-02-23T08:45:39.868Z,12.99
2023-02-23T08:46:39.842Z,12.82
2023-02-23T08:47:39.846Z,12.82
2023-02-23T08:48:39.808Z,12.87
2023-02-23T08:49:39.806Z,12.89
2023-02-23T08:50:39.848Z,12.88
2023-02-23T08:51:39.904Z,13.00
2023-02-23T08:52:39.809Z,13.06
2023-02-23T08:53:39.747Z,13.07
2023-02-23T08:54:39.750Z,13.20
2023-02-23T08:55:39.729Z,13.02
2023-02-23T08:56:39.738Z,13.09
2023-02-23T08:57:39.732Z,13.17
2023-02-23T08:58:39.689Z,13.25
2023-02-23T08:59:39.710Z,13.22
2023-02-23T09:00:39.668Z,13.27
2023-02-23T09:01:39.762Z,13.32
2023-02-23T09:02:39.661Z,13.33
2023-02-23T09:03:40.670Z,13.37
2023-02-23T09:04:39.628Z,13.33
2023-02-23T09:05:39.663Z,13.30
2023-02-23T09:06:39.609Z,13.29
2023-02-23T09:07:39.639Z,13.32
2023-02-23T09:08:39.619Z,13.32
2023-02-23T09:09:39.608Z,13.38
2023-02-23T09:10:39.580Z,13.36
2023-02-23T09:11:39.548Z,13.07
2023-02-23T09:12:39.520Z,13.20
2023-02-23T09:13:39.521Z,13.43
2023-02-23T09:14:39.539Z,13.52
2023-02-23T09:15:39.545Z,13.62
2023-02-23T09:16:39.579Z,13.70
2023-02-23T09:17:39.478Z,13.73
2023-02-23T09:18:39.501Z,13.76
2023-02-23T09:19:39.469Z,13.46
2023-02-23T09:20:41.949Z,13.47
2023-02-23T09:21:39.450Z,13.38
2023-02-23T09:22:39.414Z,13.22
2023-02-23T09:23:39.484Z,13.33
2023-02-23T09:24:39.398Z,13.40
2023-02-23T09:25:39.424Z,13.41
2023-02-23T09:26:39.398Z,13.54
2023-02-23T09:27:39.353Z,13.67
2023-02-23T09:28:39.342Z,13.65
2023-02-23T09:29:39.359Z,13.59
2023-02-23T09:30:39.403Z,13.36
2023-02-23T09:31:39.410Z,13.47
2023-02-23T09:32:39.324Z,13.58
2023-02-23T09:33:39.283Z,13.69
2023-02-23T09:34:39.289Z,13.81
2023-02-23T09:35:39.265Z,13.94
2023-02-23T09:36:39.234Z,14.02
2023-02-23T09:37:47.975Z,14.07
2023-02-23T09:38:46.767Z,13.88
2023-02-23T09:39:47.062Z,13.83
2023-02-23T09:40:46.764Z,13.49
2023-02-23T09:41:39.284Z,13.59
2023-02-23T09:42:39.164Z,13.63
2023-02-23T09:43:39.235Z,13.69
2023-02-23T09:44:39.172Z,13.73
2023-02-23T09:45:39.160Z,13.74
2023-02-23T09:46:39.151Z,13.84
2023-02-23T09:47:39.138Z,13.79
2023-02-23T09:48:39.148Z,13.88
2023-02-23T09:49:39.167Z,13.83
2023-02-23T09:50:39.091Z,13.94
2023-02-23T09:51:39.086Z,13.95
2023-02-23T09:52:39.399Z,13.89
2023-02-23T09:53:39.084Z,13.95
2023-02-23T09:54:39.047Z,13.98
2023-02-23T09:55:39.134Z,14.12
2023-02-23T09:56:39.036Z,14.07
2023-02-23T09:57:39.042Z,13.89
2023-02-23T09:58:39.164Z,13.87
2023-02-23T09:59:39.020Z,14.06
2023-02-23T10:00:38.983Z,14.24
2023-02-23T10:01:39.012Z,14.25
2023-02-23T10:02:38.968Z,14.16
2023-02-23T10:03:38.947Z,14.24
2023-02-23T10:04:38.949Z,14.29
2023-02-23T10:05:38.941Z,14.28
2023-02-23T10:06:38.955Z,14.24
2023-02-23T10:07:38.966Z,14.09
2023-02-23T10:08:38.896Z,14.32
2023-02-23T10:09:38.891Z,14.43
2023-02-23T10:10:38.906Z,14.52
2023-02-23T10:11:40.794Z,14.43
2023-02-23T10:12:38.924Z,14.43
2023-02-23T10:13:38.838Z,14.64
2023-02-23T10:14:38.816Z,14.75
2023-02-23T10:15:38.842Z,14.78
2023-02-23T10:16:38.797Z,14.74
2023-02-23T10:17:38.787Z,14.87
2023-02-23T10:18:46.460Z,15.05
2023-02-23T10:19:39.773Z,15.11
2023-02-23T10:20:38.754Z,15.19
2023-02-23T10:21:38.751Z,15.20
2023-02-23T10:22:38.740Z,15.17
2023-02-23T10:23:38.754Z,15.21
2023-02-23T10:24:38.725Z,15.20
2023-02-23T10:25:38.702Z,15.11
2023-02-23T10:26:38.731Z,15.19
2023-02-23T10:27:38.716Z,15.39
2023-02-23T10:28:38.673Z,15.11
2023-02-23T10:29:38.717Z,14.98
2023-02-23T10:30:38.663Z,15.12
2023-02-23T10:31:38.782Z,15.21
2023-02-23T10:32:38.711Z,15.33
2023-02-23T10:33:38.605Z,15.54
2023-02-23T10:34:38.606Z,15.75
2023-02-23T10:35:38.623Z,15.85
2023-02-23T10:36:38.557Z,15.85
2023-02-23T10:37:38.561Z,15.94
2023-02-23T10:38:38.586Z,15.76
2023-02-23T10:39:38.531Z,15.94
2023-02-23T10:40:38.535Z,16.04
2023-02-23T10:41:38.574Z,16.14
2023-02-23T10:42:38.489Z,16.27
2023-02-23T10:43:38.515Z,16.30
2023-02-23T10:44:38.468Z,16.44
2023-02-23T10:45:38.509Z,16.48
2023-02-23T10:46:38.627Z,16.37
2023-02-23T10:47:38.466Z,16.14
2023-02-23T10:48:38.443Z,15.75
2023-02-23T10:49:38.414Z,15.48
2023-02-23T10:50:38.418Z,15.30
2023-02-23T10:51:38.413Z,15.45
2023-02-23T10:52:41.877Z,15.61
2023-02-23T10:53:38.387Z,15.86
2023-02-23T10:54:38.356Z,16.07
2023-02-23T10:55:38.349Z,16.09
2023-02-23T10:56:38.343Z,16.23
2023-02-23T10:57:39.997Z,16.09
2023-02-23T10:58:38.350Z,15.66
2023-02-23T10:59:38.321Z,15.75
2023-02-23T11:00:38.311Z,15.68
2023-02-23T11:01:41.740Z,15.94
2023-02-23T11:02:39.348Z,16.14
2023-02-23T11:03:38.283Z,16.18
2023-02-23T11:04:38.285Z,16.34
2023-02-23T11:05:38.260Z,16.42
2023-02-23T11:06:38.223Z,16.52
2023-02-23T11:07:38.222Z,16.25
2023-02-23T11:08:38.223Z,15.89
2023-02-23T11:09:46.548Z,15.27
2023-02-23T11:10:39.187Z,15.09
2023-02-23T11:11:38.202Z,15.26
2023-02-23T11:12:38.163Z,15.17
2023-02-23T11:13:38.154Z,15.24
2023-02-23T11:14:38.139Z,15.57
2023-02-23T11:15:49.180Z,15.75
2023-02-23T11:16:39.160Z,15.96
2023-02-23T11:17:38.118Z,15.79
2023-02-23T11:18:38.083Z,15.93
2023-02-23T11:19:38.073Z,16.09
2023-02-23T11:20:38.065Z,16.27
2023-02-23T11:21:38.175Z,16.52
2023-02-23T11:22:38.058Z,16.63
2023-02-23T11:23:38.016Z,16.80
2023-02-23T11:24:38.059Z,16.98
2023-02-23T11:25:38.003Z,17.06
2023-02-23T11:26:38.091Z,17.18
2023-02-23T11:27:37.986Z,16.90
2023-02-23T11:28:38.021Z,16.71
2023-02-23T11:29:37.976Z,16.95
2023-02-23T11:30:38.203Z,16.88
2023-02-23T11:31:38.150Z,16.90
2023-02-23T11:32:38.005Z,16.88
2023-02-23T11:33:37.912Z,16.60
2023-02-23T11:34:37.912Z,16.53
2023-02-23T11:35:37.885Z,16.71
2023-02-23T11:36:37.900Z,16.60
2023-02-23T11:37:37.882Z,16.44
2023-02-23T11:38:37.845Z,16.09
2023-02-23T11:39:37.834Z,16.23
2023-02-23T11:40:37.869Z,16.31
2023-02-23T11:41:37.849Z,16.15
2023-02-23T11:42:37.882Z,16.30
2023-02-23T11:43:37.822Z,16.30
2023-02-23T11:44:37.776Z,16.23
2023-02-23T11:45:37.779Z,16.33
2023-02-23T11:46:37.896Z,16.42
2023-02-23T11:47:37.856Z,16.42
2023-02-23T11:48:37.726Z,16.31
2023-02-23T11:49:37.784Z,16.37
2023-02-23T11:50:37.698Z,16.25
2023-02-23T11:51:37.724Z,16.31
2023-02-23T11:52:37.678Z,16.31
2023-02-23T11:53:37.713Z,16.25
2023-02-23T11:54:37.669Z,15.96
2023-02-23T11:55:37.803Z,15.84
2023-02-23T11:56:37.648Z,15.75
2023-02-23T11:57:37.640Z,15.96
2023-02-23T11:58:37.623Z,16.07
2023-02-23T11:59:37.643Z,16.04
2023-02-23T12:00:37.592Z,15.85
2023-02-23T12:01:37.610Z,15.74
2023-02-23T12:02:37.578Z,15.75
2023-02-23T12:03:37.613Z,15.63
2023-02-23T12:04:37.610Z,15.45
2023-02-23T12:05:37.541Z,15.48
2023-02-23T12:06:37.579Z,15.41
2023-02-23T12:07:37.538Z,15.68
2023-02-23T12:08:37.496Z,15.68
2023-02-23T12:09:37.486Z,15.81
2023-02-23T12:10:37.494Z,15.76
2023-02-23T12:11:37.491Z,15.61
2023-02-23T12:12:37.488Z,15.72
2023-02-23T12:13:37.480Z,15.96
2023-02-23T12:14:37.442Z,16.11
2023-02-23T12:15:38.586Z,16.01
2023-02-23T12:16:37.442Z,16.22
2023-02-23T12:17:37.446Z,16.27
2023-02-23T12:18:37.405Z,16.31
2023-02-23T12:19:37.396Z,16.22
2023-02-23T12:20:37.420Z,16.30
2023-02-23T12:21:37.437Z,16.12
2023-02-23T12:22:37.386Z,15.70
2023-02-23T12:23:37.328Z,15.81
2023-02-23T12:24:37.358Z,15.97
2023-02-23T12:25:37.316Z,16.03
2023-02-23T12:26:37.295Z,16.06
2023-02-23T12:27:37.290Z,16.06
2023-02-23T12:28:37.282Z,16.09
2023-02-23T12:29:37.265Z,16.03
2023-02-23T12:30:37.302Z,16.00
2023-02-23T12:31:37.337Z,15.97
2023-02-23T12:32:37.255Z,15.89
2023-02-23T12:33:37.268Z,15.94
2023-02-23T12:34:37.214Z,16.01
2023-02-23T12:35:37.192Z,15.92
2023-02-23T12:36:38.427Z,15.79
2023-02-23T12:37:37.163Z,15.57
2023-02-23T12:38:37.167Z,15.17
2023-02-23T12:39:37.163Z,14.84
2023-02-23T12:40:37.148Z,14.98
2023-02-23T12:41:37.129Z,15.12
2023-02-23T12:42:37.180Z,15.35
2023-02-23T12:43:37.115Z,15.51
2023-02-23T12:44:37.091Z,15.39
2023-02-23T12:45:37.127Z,15.27
2023-02-23T12:46:37.084Z,15.11
2023-02-23T12:47:37.096Z,15.11
2023-02-23T12:48:37.076Z,15.19
2023-02-23T12:49:37.036Z,15.13
2023-02-23T12:50:37.028Z,15.13
2023-02-23T12:51:36.996Z,14.71
2023-02-23T12:52:37.000Z,14.56